createdAt,value
2022-07-27T00:00:17.800Z,652
2022-07-27T00:02:17.516Z,650
2022-07-27T00:04:18.336Z,651
2022-07-27T00:06:18.395Z,651
2022-07-27T00:08:18.136Z,653
2022-07-27T00:10:18.375Z,648
2022-07-27T00:12:18.060Z,649
2022-07-27T00:14:17.804Z,649
2022-07-27T00:16:18.399Z,647
2022-07-27T00:18:18.312Z,644
2022-07-27T00:20:18.169Z,643
2022-07-27T00:22:18.033Z,643
2022-07-27T00:24:17.392Z,646
2022-07-27T00:26:18.192Z,641
2022-07-27T00:28:17.927Z,641
2022-07-27T00:30:17.736Z,640
2022-07-27T00:32:17.984Z,638
2022-07-27T00:34:17.580Z,638
2022-07-27T00:36:18.386Z,633
2022-07-27T00:38:18.416Z,632
2022-07-27T00:40:18.250Z,626
2022-07-27T00:42:17.988Z,623
2022-07-27T00:44:17.797Z,630
2022-07-27T00:46:17.580Z,622
2022-07-27T00:48:17.506Z,631
2022-07-27T00:50:18.273Z,623
2022-07-27T00:52:17.610Z,623
2022-07-27T00:54:18.038Z,618
2022-07-27T00:56:17.521Z,613
2022-07-27T00:58:18.261Z,617
2022-07-27T01:00:18.200Z,617
2022-07-27T01:02:19.561Z,619
2022-07-27T01:04:17.785Z,616
2022-07-27T01:06:24.923Z,619
2022-07-27T01:08:17.856Z,614
2022-07-27T01:10:17.784Z,611
2022-07-27T01:12:17.623Z,614
2022-07-27T01:14:17.400Z,618
2022-07-27T01:16:18.005Z,623
2022-07-27T01:18:17.915Z,618
2022-07-27T01:20:17.970Z,612
2022-07-27T01:22:18.001Z,610
2022-07-27T01:24:17.299Z,611
2022-07-27T01:26:18.336Z,609
2022-07-27T01:28:18.291Z,605
2022-07-27T01:30:18.102Z,611
2022-07-27T01:32:17.944Z,609
2022-07-27T01:34:17.709Z,618
2022-07-27T01:36:17.556Z,613
2022-07-27T01:38:17.669Z,617
2022-07-27T01:40:17.355Z,616
2022-07-27T01:42:18.082Z,609
2022-07-27T01:44:17.923Z,610
2022-07-27T01:46:17.711Z,601
2022-07-27T01:48:17.423Z,606
2022-07-27T01:50:17.446Z,601
2022-07-27T01:52:17.650Z,597
2022-07-27T01:54:18.232Z,602
2022-07-27T01:56:18.092Z,601
2022-07-27T01:58:18.016Z,601
2022-07-27T02:00:17.766Z,602
2022-07-27T02:02:17.528Z,601
2022-07-27T02:04:18.288Z,598
2022-07-27T02:06:18.095Z,598
2022-07-27T02:08:17.856Z,596
2022-07-27T02:10:17.683Z,591
2022-07-27T02:12:17.678Z,588
2022-07-27T02:14:17.405Z,594
2022-07-27T02:16:18.245Z,590
2022-07-27T02:18:29.407Z,588
2022-07-27T02:20:18.216Z,578
2022-07-27T02:22:18.163Z,587
2022-07-27T02:24:17.839Z,582
2022-07-27T02:26:17.730Z,575
2022-07-27T02:28:17.851Z,579
2022-07-27T02:30:17.693Z,583
2022-07-27T02:32:17.714Z,579
2022-07-27T02:34:17.384Z,581
2022-07-27T02:36:17.903Z,578
2022-07-27T02:38:17.853Z,577
2022-07-27T02:40:18.233Z,574
2022-07-27T02:42:17.624Z,572
2022-07-27T02:44:17.413Z,573
2022-07-27T02:46:18.357Z,566
2022-07-27T02:48:17.425Z,572
2022-07-27T02:50:17.846Z,573
2022-07-27T02:52:17.832Z,571
2022-07-27T02:54:17.769Z,567
2022-07-27T02:56:17.695Z,570
2022-07-27T02:58:17.709Z,564
2022-07-27T03:00:18.106Z,561
2022-07-27T03:02:17.398Z,562
2022-07-27T03:04:18.019Z,564
2022-07-27T03:06:17.819Z,558
2022-07-27T03:08:17.593Z,557
2022-07-27T03:10:17.667Z,562
2022-07-27T03:12:17.519Z,565
2022-07-27T03:14:17.724Z,554
2022-07-27T03:16:17.456Z,562
2022-07-27T03:18:17.451Z,563
2022-07-27T03:20:18.232Z,554
2022-07-27T03:22:18.001Z,549
2022-07-27T03:24:18.038Z,556
2022-07-27T03:26:17.835Z,559
2022-07-27T03:28:17.537Z,555
2022-07-27T03:30:17.652Z,552
2022-07-27T03:32:17.570Z,547
2022-07-27T03:34:17.381Z,554
2022-07-27T03:36:18.172Z,549
2022-07-27T03:38:17.490Z,549
2022-07-27T03:40:18.384Z,541
2022-07-27T03:42:18.196Z,545
2022-07-27T03:44:18.004Z,550
2022-07-27T03:46:17.875Z,541
2022-07-27T03:48:17.722Z,547
2022-07-27T03:50:17.524Z,546
2022-07-27T03:52:18.057Z,539
2022-07-27T03:54:17.940Z,537
2022-07-27T03:56:17.865Z,543
2022-07-27T03:58:17.478Z,534
2022-07-27T04:00:18.262Z,530
2022-07-27T04:02:18.170Z,534
2022-07-27T04:04:18.045Z,531
2022-07-27T04:06:17.790Z,528
2022-07-27T04:08:17.447Z,531
2022-07-27T04:10:18.206Z,533
2022-07-27T04:12:17.479Z,531
2022-07-27T04:14:17.670Z,529
2022-07-27T04:16:17.545Z,522
2022-07-27T04:18:17.471Z,520
2022-07-27T04:20:17.725Z,519
2022-07-27T04:22:17.552Z,528
2022-07-27T04:24:17.493Z,524
2022-07-27T04:26:18.002Z,518
2022-07-27T04:28:17.855Z,517
2022-07-27T04:30:17.640Z,520
2022-07-27T04:32:17.429Z,526
2022-07-27T04:34:18.124Z,524
2022-07-27T04:36:17.948Z,516
2022-07-27T04:38:17.659Z,519
2022-07-27T04:40:17.494Z,519
2022-07-27T04:42:18.291Z,520
2022-07-27T04:44:18.074Z,518
2022-07-27T04:46:17.993Z,512
2022-07-27T04:48:18.074Z,521
2022-07-27T04:50:17.599Z,522
2022-07-27T04:52:17.525Z,521
2022-07-27T04:54:17.671Z,516
2022-07-27T04:56:17.671Z,525
2022-07-27T04:58:17.653Z,522
2022-07-27T05:00:17.455Z,513
2022-07-27T05:02:17.407Z,516
2022-07-27T05:04:17.844Z,517
2022-07-27T05:06:17.911Z,519
2022-07-27T05:08:17.728Z,518
2022-07-27T05:10:20.446Z,515
2022-07-27T05:12:17.877Z,513
2022-07-27T05:14:17.786Z,515
2022-07-27T05:16:18.005Z,521
2022-07-27T05:18:17.584Z,508
2022-07-27T05:20:18.031Z,517
2022-07-27T05:22:17.861Z,518
2022-07-27T05:24:17.680Z,508
2022-07-27T05:26:17.741Z,511
2022-07-27T05:28:17.432Z,511
2022-07-27T05:30:18.310Z,517
2022-07-27T05:32:17.807Z,514
2022-07-27T05:34:17.816Z,510
2022-07-27T05:36:18.118Z,512
2022-07-27T05:38:18.148Z,500
2022-07-27T05:40:17.834Z,507
2022-07-27T05:42:17.664Z,516
2022-07-27T05:44:17.546Z,501
2022-07-27T05:46:17.575Z,506
2022-07-27T05:48:17.459Z,501
2022-07-27T05:50:18.273Z,500
2022-07-27T05:52:17.999Z,499
2022-07-27T05:54:17.858Z,494
2022-07-27T05:56:17.762Z,499
2022-07-27T05:58:17.525Z,503
2022-07-27T06:00:18.085Z,498
2022-07-27T06:02:17.886Z,493
2022-07-27T06:04:17.673Z,498
2022-07-27T06:06:17.724Z,499
2022-07-27T06:08:17.680Z,495
2022-07-27T06:10:17.520Z,490
2022-07-27T06:12:18.297Z,502
2022-07-27T06:14:18.120Z,497
2022-07-27T06:16:18.000Z,500
2022-07-27T06:18:17.928Z,497
2022-07-27T06:20:17.681Z,500
2022-07-27T06:22:17.470Z,503
2022-07-27T06:24:17.839Z,502
2022-07-27T06:26:17.484Z,498
2022-07-27T06:28:18.039Z,500
2022-07-27T06:30:17.912Z,497
2022-07-27T06:32:17.781Z,495
2022-07-27T06:34:18.058Z,489
2022-07-27T06:36:17.451Z,491
2022-07-27T06:38:18.273Z,497
2022-07-27T06:40:18.033Z,500
2022-07-27T06:42:18.050Z,502
2022-07-27T06:44:18.020Z,508
2022-07-27T06:46:17.888Z,498
2022-07-27T06:48:17.738Z,501
2022-07-27T06:50:17.560Z,496
2022-07-27T06:52:17.938Z,489
2022-07-27T06:54:17.446Z,487
2022-07-27T06:56:18.211Z,498
2022-07-27T06:58:18.048Z,506
2022-07-27T07:00:17.891Z,503
2022-07-27T07:02:18.245Z,499
2022-07-27T07:04:18.125Z,512
2022-07-27T07:06:17.689Z,506
2022-07-27T07:08:17.517Z,510
2022-07-27T07:10:18.404Z,504
2022-07-27T07:12:17.542Z,502
2022-07-27T07:14:17.460Z,504
2022-07-27T07:16:18.364Z,513
2022-07-27T07:18:18.356Z,510
2022-07-27T07:20:18.279Z,523
2022-07-27T07:22:18.134Z,509
2022-07-27T07:24:17.681Z,512
2022-07-27T07:26:18.329Z,510
2022-07-27T07:28:18.102Z,523
2022-07-27T07:30:17.634Z,513
2022-07-27T07:32:17.666Z,517
2022-07-27T07:34:17.659Z,513
2022-07-27T07:36:17.810Z,521
2022-07-27T07:38:17.706Z,516
2022-07-27T07:40:43.022Z,516
2022-07-27T07:42:17.794Z,521
2022-07-27T07:44:17.606Z,524
2022-07-27T07:46:17.432Z,520
2022-07-27T07:48:18.286Z,520
2022-07-27T07:50:17.754Z,528
2022-07-27T07:52:17.550Z,511
2022-07-27T07:54:18.310Z,525
2022-07-27T07:56:18.336Z,514
2022-07-27T07:58:18.154Z,506
2022-07-27T08:00:17.998Z,528
2022-07-27T08:02:17.814Z,536
2022-07-27T08:04:17.647Z,543
2022-07-27T08:06:17.478Z,550
2022-07-27T08:08:17.792Z,552
2022-07-27T08:10:18.424Z,552
2022-07-27T08:12:18.165Z,542
2022-07-27T08:14:18.079Z,548
2022-07-27T08:16:17.997Z,543
2022-07-27T08:18:18.100Z,538
2022-07-27T08:20:17.949Z,549
2022-07-27T08:22:18.291Z,548
2022-07-27T08:24:17.409Z,553
2022-07-27T08:26:17.480Z,550
2022-07-27T08:28:18.099Z,555
2022-07-27T08:30:17.853Z,555
2022-07-27T08:32:17.813Z,539
2022-07-27T08:34:17.657Z,543
2022-07-27T08:36:18.175Z,562
2022-07-27T08:38:18.022Z,562
2022-07-27T08:42:17.439Z,560
2022-07-27T08:44:18.365Z,566
2022-07-27T08:46:17.933Z,556
2022-07-27T08:48:17.428Z,576
2022-07-27T08:50:18.384Z,577
2022-07-27T08:52:18.192Z,585
2022-07-27T08:54:18.050Z,587
2022-07-27T08:56:18.304Z,579
2022-07-27T08:58:18.207Z,566
2022-07-27T09:00:18.107Z,568
2022-07-27T09:02:18.146Z,578
2022-07-27T09:04:17.964Z,582
2022-07-27T09:06:18.144Z,594
2022-07-27T09:08:17.619Z,589
2022-07-27T09:10:18.170Z,598
2022-07-27T09:12:17.959Z,592
2022-07-27T09:14:17.819Z,594
2022-07-27T09:16:19.456Z,612
2022-07-27T09:18:18.023Z,583
2022-07-27T09:20:18.952Z,571
2022-07-27T09:22:17.932Z,563
2022-07-27T09:24:44.146Z,562
2022-07-27T09:26:30.926Z,571
2022-07-27T09:28:17.535Z,557
2022-07-27T09:30:18.292Z,560
2022-07-27T09:32:17.888Z,564
2022-07-27T09:34:17.856Z,555
2022-07-27T09:36:17.798Z,549
2022-07-27T09:38:17.623Z,549
2022-07-27T09:40:24.372Z,553
2022-07-27T09:42:52.662Z,551
2022-07-27T09:44:34.662Z,549
2022-07-27T09:46:17.714Z,548
2022-07-27T09:48:20.450Z,543
2022-07-27T09:50:18.216Z,543
2022-07-27T09:52:17.979Z,547
2022-07-27T09:54:17.666Z,553
2022-07-27T09:56:17.419Z,552
2022-07-27T09:58:18.203Z,554
2022-07-27T10:00:17.473Z,548
2022-07-27T10:02:17.847Z,548
2022-07-27T10:04:17.967Z,554
2022-07-27T10:06:18.211Z,551
2022-07-27T10:08:18.054Z,556
2022-07-27T10:10:18.094Z,552
2022-07-27T10:12:17.923Z,555
2022-07-27T10:14:18.096Z,561
2022-07-27T10:16:17.491Z,570
2022-07-27T10:18:17.928Z,560
2022-07-27T10:20:17.883Z,560
2022-07-27T10:22:17.764Z,559
2022-07-27T10:24:17.603Z,566
2022-07-27T10:26:17.472Z,567
2022-07-27T10:28:18.272Z,562
2022-07-27T10:30:23.966Z,560
2022-07-27T10:32:18.212Z,565
2022-07-27T10:34:17.401Z,559
2022-07-27T10:36:18.201Z,556
2022-07-27T10:38:18.143Z,551
2022-07-27T10:40:17.907Z,559
2022-07-27T10:42:18.156Z,549
2022-07-27T10:44:18.333Z,552
2022-07-27T10:46:18.212Z,552
2022-07-27T10:48:18.010Z,555
2022-07-27T10:50:17.469Z,557
2022-07-27T10:52:18.278Z,555
2022-07-27T10:54:18.048Z,550
2022-07-27T10:56:17.802Z,559
2022-07-27T10:58:17.636Z,550
2022-07-27T11:00:19.775Z,551
2022-07-27T11:02:17.731Z,553
2022-07-27T11:04:17.975Z,555
2022-07-27T11:06:32.287Z,560
2022-07-27T11:08:36.396Z,552
2022-07-27T11:10:17.657Z,551
2022-07-27T11:12:17.431Z,556
2022-07-27T11:14:18.960Z,558
2022-07-27T11:16:25.896Z,553
2022-07-27T11:18:18.018Z,553
2022-07-27T11:20:17.877Z,553
2022-07-27T11:22:28.478Z,557
2022-07-27T11:24:17.810Z,548
2022-07-27T11:26:17.675Z,553
2022-07-27T11:28:17.854Z,556
2022-07-27T11:30:17.838Z,546
2022-07-27T11:32:18.250Z,561
2022-07-27T11:34:18.171Z,557
2022-07-27T11:36:17.737Z,553
2022-07-27T11:38:17.593Z,551
2022-07-27T11:40:53.611Z,555
2022-07-27T11:42:18.859Z,564
2022-07-27T11:44:18.161Z,554
2022-07-27T11:46:18.192Z,546
2022-07-27T11:48:17.512Z,551
2022-07-27T11:50:18.349Z,554
2022-07-27T11:52:18.238Z,557
2022-07-27T11:54:17.517Z,553
2022-07-27T11:56:18.391Z,556
2022-07-27T11:58:17.345Z,556
2022-07-27T12:00:18.349Z,550
2022-07-27T12:02:18.416Z,549
2022-07-27T12:04:18.264Z,549
2022-07-27T12:06:18.343Z,546
2022-07-27T12:08:18.157Z,539
2022-07-27T12:10:17.962Z,543
2022-07-27T12:12:17.666Z,546
2022-07-27T12:14:17.414Z,551
2022-07-27T12:16:18.590Z,553
2022-07-27T12:18:17.542Z,554
2022-07-27T12:20:17.731Z,552
2022-07-27T12:22:18.215Z,545
2022-07-27T12:24:17.949Z,541
2022-07-27T12:26:17.803Z,543
2022-07-27T12:28:18.312Z,549
2022-07-27T12:30:23.180Z,555
2022-07-27T12:32:18.414Z,560
2022-07-27T12:34:18.172Z,560
2022-07-27T12:36:18.288Z,560
2022-07-27T12:38:18.250Z,570
2022-07-27T12:40:18.082Z,575
2022-07-27T12:42:17.863Z,574
2022-07-27T12:44:17.677Z,576
2022-07-27T12:46:17.694Z,580
2022-07-27T12:48:17.562Z,568
2022-07-27T12:50:17.400Z,565
2022-07-27T12:52:18.207Z,567
2022-07-27T12:54:18.050Z,570
2022-07-27T12:56:27.292Z,578
2022-07-27T12:58:17.996Z,582
2022-07-27T13:00:17.837Z,580
2022-07-27T13:02:17.926Z,578
2022-07-27T13:04:17.659Z,575
2022-07-27T13:06:17.453Z,583
2022-07-27T13:08:17.388Z,574
2022-07-27T13:10:18.187Z,581
2022-07-27T13:12:18.079Z,575
2022-07-27T13:14:17.886Z,583
2022-07-27T13:16:18.254Z,586
2022-07-27T13:18:23.010Z,580
2022-07-27T13:20:18.140Z,582
2022-07-27T13:22:18.196Z,577
2022-07-27T13:24:17.993Z,578
2022-07-27T13:26:17.514Z,578
2022-07-27T13:28:17.513Z,585
2022-07-27T13:30:17.448Z,574
2022-07-27T13:32:18.191Z,580
2022-07-27T13:34:18.275Z,579
2022-07-27T13:36:18.258Z,576
2022-07-27T13:38:17.512Z,579
2022-07-27T13:40:18.378Z,581
2022-07-27T13:42:18.176Z,569
2022-07-27T13:44:35.867Z,581
2022-07-27T13:46:17.713Z,577
2022-07-27T13:48:18.189Z,578
2022-07-27T13:50:19.588Z,573
2022-07-27T13:52:17.822Z,578
2022-07-27T13:54:17.631Z,569
2022-07-27T13:56:17.811Z,577
2022-07-27T13:58:17.648Z,580
2022-07-27T14:00:17.463Z,571
2022-07-27T14:02:19.116Z,580
2022-07-27T14:04:17.805Z,575
2022-07-27T14:06:18.026Z,582
2022-07-27T14:08:17.947Z,576
2022-07-27T14:10:17.775Z,579
2022-07-27T14:12:17.686Z,582
2022-07-27T14:14:17.537Z,584
2022-07-27T14:16:18.253Z,579
2022-07-27T14:18:18.177Z,577
2022-07-27T14:20:17.985Z,583
2022-07-27T14:22:17.779Z,584
2022-07-27T14:24:17.890Z,582
2022-07-27T14:26:17.430Z,579
2022-07-27T14:28:17.529Z,578
2022-07-27T14:30:20.893Z,583
2022-07-27T14:32:17.949Z,580
2022-07-27T14:34:17.792Z,580
2022-07-27T14:36:17.986Z,578
2022-07-27T14:38:25.204Z,576
2022-07-27T14:40:18.248Z,581
2022-07-27T14:42:18.159Z,589
2022-07-27T14:44:18.294Z,590
2022-07-27T14:46:17.439Z,579
2022-07-27T14:48:25.225Z,578
2022-07-27T14:50:17.771Z,585
2022-07-27T14:52:17.465Z,579
2022-07-27T14:54:18.241Z,585
2022-07-27T14:56:18.042Z,589
2022-07-27T14:58:17.858Z,584
2022-07-27T15:00:17.597Z,581
2022-07-27T15:02:17.900Z,582
2022-07-27T15:04:18.141Z,586
2022-07-27T15:06:17.974Z,584
2022-07-27T15:08:18.267Z,585
2022-07-27T15:10:18.320Z,593
2022-07-27T15:12:18.281Z,587
2022-07-27T15:14:18.115Z,584
2022-07-27T15:16:17.400Z,596
2022-07-27T15:18:17.625Z,582
2022-07-27T15:20:18.174Z,580
2022-07-27T15:22:18.031Z,586
2022-07-27T15:24:18.107Z,583
2022-07-27T15:26:17.928Z,584
2022-07-27T15:28:17.951Z,593
2022-07-27T15:30:17.745Z,586
2022-07-27T15:32:17.838Z,585
2022-07-27T15:34:17.628Z,585
2022-07-27T15:36:31.769Z,590
2022-07-27T15:38:17.853Z,589
2022-07-27T15:40:20.132Z,597
2022-07-27T15:42:18.101Z,593
2022-07-27T15:44:17.908Z,591
2022-07-27T15:46:17.727Z,593
2022-07-27T15:48:17.389Z,596
2022-07-27T15:50:17.635Z,593
2022-07-27T15:52:17.443Z,585
2022-07-27T15:54:18.136Z,602
2022-07-27T15:56:17.984Z,586
2022-07-27T15:58:17.945Z,543
2022-07-27T16:00:18.073Z,505
2022-07-27T16:02:20.662Z,473
2022-07-27T16:04:17.858Z,462
2022-07-27T16:06:19.075Z,458
2022-07-27T16:08:18.091Z,459
2022-07-27T16:10:18.020Z,465
2022-07-27T16:12:17.850Z,469
2022-07-27T16:14:17.655Z,460
2022-07-27T16:16:17.675Z,465
2022-07-27T16:18:17.662Z,465
2022-07-27T16:20:17.842Z,467
2022-07-27T16:22:17.694Z,463
2022-07-27T16:24:17.580Z,468
2022-07-27T16:26:18.192Z,469
2022-07-27T16:28:18.337Z,468
2022-07-27T16:30:20.051Z,458
2022-07-27T16:32:17.525Z,463
2022-07-27T16:34:18.315Z,467
2022-07-27T16:36:18.238Z,470
2022-07-27T16:38:18.272Z,475
2022-07-27T16:40:18.081Z,467
2022-07-27T16:42:17.883Z,481
2022-07-27T16:44:17.786Z,484
2022-07-27T16:46:17.716Z,473
2022-07-27T16:48:17.630Z,470
2022-07-27T16:50:17.663Z,476
2022-07-27T16:52:17.946Z,480
2022-07-27T16:54:17.797Z,471
2022-07-27T16:56:17.707Z,476
2022-07-27T16:58:17.492Z,473
2022-07-27T17:00:17.489Z,485
2022-07-27T17:02:18.264Z,480
2022-07-27T17:04:17.654Z,477
2022-07-27T17:06:17.485Z,486
2022-07-27T17:08:18.368Z,463
2022-07-27T17:10:26.777Z,466
2022-07-27T17:12:18.067Z,475
2022-07-27T17:14:17.581Z,469
2022-07-27T17:16:18.024Z,466
2022-07-27T17:18:17.563Z,474
2022-07-27T17:20:27.848Z,468
2022-07-27T17:22:18.030Z,466
2022-07-27T17:24:18.697Z,468
2022-07-27T17:26:18.099Z,464
2022-07-27T17:28:17.909Z,461
2022-07-27T17:30:17.825Z,454
2022-07-27T17:32:17.900Z,465
2022-07-27T17:34:17.697Z,460
2022-07-27T17:36:18.273Z,473
2022-07-27T17:38:18.093Z,473
2022-07-27T17:40:18.164Z,473
2022-07-27T17:42:18.019Z,475
2022-07-27T17:44:17.599Z,471
2022-07-27T17:46:17.470Z,463
2022-07-27T17:48:18.344Z,463
2022-07-27T17:50:18.159Z,467
2022-07-27T17:52:17.964Z,471
2022-07-27T17:54:17.769Z,467
2022-07-27T17:56:17.536Z,472
2022-07-27T17:58:17.469Z,476
2022-07-27T18:00:17.732Z,475
2022-07-27T18:02:17.679Z,465
2022-07-27T18:04:17.876Z,466
2022-07-27T18:06:17.615Z,464
2022-07-27T18:08:17.585Z,476
2022-07-27T18:10:17.519Z,473
2022-07-27T18:12:18.288Z,480
2022-07-27T18:14:17.689Z,479
2022-07-27T18:16:17.639Z,467
2022-07-27T18:18:18.231Z,467
2022-07-27T18:20:18.100Z,465
2022-07-27T18:22:17.961Z,467
2022-07-27T18:24:18.067Z,472
2022-07-27T18:26:17.853Z,464
2022-07-27T18:28:18.184Z,467
2022-07-27T18:30:18.129Z,472
2022-07-27T18:32:17.965Z,460
2022-07-27T18:34:18.184Z,463
2022-07-27T18:36:17.995Z,461
2022-07-27T18:38:17.863Z,462
2022-07-27T18:40:17.741Z,470
2022-07-27T18:42:17.597Z,465
2022-07-27T18:44:17.331Z,456
2022-07-27T18:46:18.247Z,472
2022-07-27T18:48:18.341Z,473
2022-07-27T18:50:18.251Z,479
2022-07-27T18:52:18.442Z,472
2022-07-27T18:54:17.707Z,482
2022-07-27T18:56:17.489Z,483
2022-07-27T18:58:18.220Z,471
2022-07-27T19:00:18.093Z,476
2022-07-27T19:02:18.284Z,470
2022-07-27T19:04:18.145Z,461
2022-07-27T19:06:18.740Z,469
2022-07-27T19:08:17.578Z,462
2022-07-27T19:10:17.438Z,463
2022-07-27T19:12:18.275Z,473
2022-07-27T19:14:18.131Z,480
2022-07-27T19:16:17.890Z,496
2022-07-27T19:18:17.829Z,495
2022-07-27T19:20:17.467Z,478
2022-07-27T19:22:17.854Z,484
2022-07-27T19:24:17.704Z,481
2022-07-27T19:26:17.483Z,480
2022-07-27T19:28:18.170Z,460
2022-07-27T19:30:17.902Z,468
2022-07-27T19:32:18.226Z,468
2022-07-27T19:34:18.033Z,473
2022-07-27T19:36:17.725Z,459
2022-07-27T19:38:17.766Z,462
2022-07-27T19:40:43.889Z,470
2022-07-27T19:42:17.449Z,465
2022-07-27T19:44:22.290Z,464
2022-07-27T19:46:18.306Z,452
2022-07-27T19:48:17.848Z,479
2022-07-27T19:50:17.707Z,522
2022-07-27T19:52:17.456Z,474
2022-07-27T19:54:17.926Z,476
2022-07-27T19:56:17.768Z,475
2022-07-27T19:58:17.977Z,471
2022-07-27T20:00:18.109Z,465
2022-07-27T20:02:18.142Z,468
2022-07-27T20:04:17.954Z,469
2022-07-27T20:06:18.247Z,465
2022-07-27T20:08:17.683Z,475
2022-07-27T20:10:17.494Z,485
2022-07-27T20:12:18.250Z,496
2022-07-27T20:14:17.806Z,513
2022-07-27T20:16:18.125Z,512
2022-07-27T20:18:17.994Z,512
2022-07-27T20:20:18.213Z,504
2022-07-27T20:22:18.044Z,478
2022-07-27T20:24:17.839Z,480
2022-07-27T20:26:18.210Z,487
2022-07-27T20:28:18.007Z,466
2022-07-27T20:30:17.954Z,458
2022-07-27T20:32:18.197Z,485
2022-07-27T20:34:17.566Z,479
2022-07-27T20:36:17.369Z,478
2022-07-27T20:38:18.107Z,474
2022-07-27T20:40:18.000Z,485
2022-07-27T20:42:18.086Z,511
2022-07-27T20:44:17.851Z,525
2022-07-27T20:46:17.898Z,557
2022-07-27T20:48:18.376Z,571
2022-07-27T20:50:18.186Z,573
2022-07-27T20:52:17.980Z,580
2022-07-27T20:54:17.756Z,548
2022-07-27T20:56:17.869Z,603
2022-07-27T20:58:17.882Z,618
2022-07-27T21:00:18.007Z,627
2022-07-27T21:02:17.864Z,618
2022-07-27T21:04:17.742Z,645
2022-07-27T21:06:17.824Z,652
2022-07-27T21:08:17.735Z,648
2022-07-27T21:10:17.408Z,657
2022-07-27T21:12:18.277Z,661
2022-07-27T21:14:18.078Z,669
2022-07-27T21:16:17.996Z,660
2022-07-27T21:18:18.053Z,666
2022-07-27T21:20:17.836Z,673
2022-07-27T21:22:17.841Z,669
2022-07-27T21:24:18.473Z,667
2022-07-27T21:26:18.273Z,661
2022-07-27T21:28:18.370Z,660
2022-07-27T21:30:17.688Z,667
2022-07-27T21:32:17.788Z,665
2022-07-27T21:34:17.963Z,673
2022-07-27T21:36:18.424Z,664
2022-07-27T21:38:18.286Z,693
2022-07-27T21:40:17.681Z,714
2022-07-27T21:42:17.915Z,717
2022-07-27T21:44:18.552Z,719
2022-07-27T21:46:17.579Z,725
2022-07-27T21:48:17.534Z,731
2022-07-27T21:50:18.377Z,719
2022-07-27T21:52:18.339Z,722
2022-07-27T21:54:17.452Z,719
2022-07-27T21:56:18.371Z,717
2022-07-27T21:58:17.401Z,729
2022-07-27T22:00:18.225Z,719
2022-07-27T22:02:18.031Z,734
2022-07-27T22:04:18.058Z,714
2022-07-27T22:06:17.855Z,738
2022-07-27T22:08:17.961Z,735
2022-07-27T22:10:17.764Z,744
2022-07-27T22:12:17.699Z,730
2022-07-27T22:14:17.815Z,738
2022-07-27T22:16:17.745Z,730
2022-07-27T22:18:17.749Z,726
2022-07-27T22:20:18.101Z,725
2022-07-27T22:22:17.333Z,729
2022-07-27T22:24:17.765Z,727
2022-07-27T22:26:17.700Z,724
2022-07-27T22:28:17.433Z,722
2022-07-27T22:30:18.257Z,712
2022-07-27T22:32:18.114Z,724
2022-07-27T22:34:18.119Z,723
2022-07-27T22:36:17.950Z,726
2022-07-27T22:38:17.831Z,725
2022-07-27T22:40:17.771Z,721
2022-07-27T22:42:17.538Z,725
2022-07-27T22:44:18.045Z,723
2022-07-27T22:46:22.261Z,713
2022-07-27T22:48:18.011Z,723
2022-07-27T22:50:18.304Z,708
2022-07-27T22:52:18.075Z,720
2022-07-27T22:54:18.303Z,725
2022-07-27T22:56:18.108Z,716
2022-07-27T22:58:17.960Z,714
2022-07-27T23:00:17.787Z,723
2022-07-27T23:02:18.210Z,714
2022-07-27T23:04:18.546Z,727
2022-07-27T23:06:17.499Z,725
2022-07-27T23:08:18.243Z,729
2022-07-27T23:10:18.009Z,722
2022-07-27T23:12:17.806Z,723
2022-07-27T23:14:18.833Z,719
2022-07-27T23:16:17.892Z,720
2022-07-27T23:18:17.606Z,719
2022-07-27T23:20:17.368Z,714
2022-07-27T23:22:17.922Z,718
2022-07-27T23:24:28.742Z,721
2022-07-27T23:26:17.605Z,715
2022-07-27T23:28:17.410Z,723
2022-07-27T23:30:17.369Z,732
2022-07-27T23:32:18.082Z,734
2022-07-27T23:34:18.030Z,722
2022-07-27T23:36:17.891Z,734
2022-07-27T23:38:17.783Z,729
2022-07-27T23:40:17.594Z,729
2022-07-27T23:42:17.672Z,730
2022-07-27T23:44:17.564Z,734
2022-07-27T23:46:17.925Z,730
2022-07-27T23:48:17.704Z,734
2022-07-27T23:50:17.962Z,736
2022-07-27T23:52:17.778Z,720
2022-07-27T23:54:17.772Z,729
2022-07-27T23:56:17.681Z,731
2022-07-27T23:58:17.482Z,732
